Time;durP1;ratioP1;P1;durP2;ratioP2;P2;SDS_P1;SDS_P2;PMS_P1;PMS_P2;Temp;Humidity;BMP_temperature;BMP_pressure;BME280_temperature;BME280_humidity;BME280_pressure;Samples;Min_cycle;Max_cycle;Signal;HPM_P1;HPM_P2
2023/02/15 00:01:08;;;;;;;;;67.50;53.00;;;;;11.49;54.74;101976.53;6333996;22;46963;-74
2023/02/15 00:17:28;;;;;;;;;71.75;56.75;;;;;11.47;55.15;101960.00;6332099;22;45806;-73
2023/02/15 00:23:15;;;;;;;;;76.50;57.00;;;;;11.40;55.21;101942.03;6332448;22;46146;-73
2023/02/15 00:25:40;;;;;;;;;72.00;55.50;;;;;11.45;55.38;101953.97;6331091;22;47018;-74
2023/02/15 00:28:06;;;;;;;;;74.50;55.50;;;;;11.43;55.14;101942.72;6332757;22;45765;-73
2023/02/15 00:30:31;;;;;;;;;78.50;57.25;;;;;11.44;55.30;101946.19;6332603;22;45624;-72
2023/02/15 00:32:56;;;;;;;;;76.00;58.67;;;;;11.41;55.29;101939.31;6332268;22;46442;-72
2023/02/15 00:38:57;;;;;;;;;70.25;56.25;;;;;11.40;55.46;101935.00;6327358;22;47103;-75
2023/02/15 00:41:23;;;;;;;;;70.25;55.75;;;;;11.43;55.53;101939.25;6304659;22;45596;-74
2023/02/15 00:43:48;;;;;;;;;72.00;55.00;;;;;11.41;55.51;101933.22;6332670;22;46299;-74
2023/02/15 00:46:14;;;;;;;;;75.00;53.75;;;;;11.37;55.36;101919.44;6332306;22;46272;-74
2023/02/15 00:48:39;;;;;;;;;72.50;56.75;;;;;11.42;55.51;101929.69;6304063;22;45792;-74
2023/02/15 00:51:04;;;;;;;;;72.33;53.67;;;;;11.34;55.42;101924.81;6304126;22;45746;-74
2023/02/15 00:53:30;;;;;;;;;74.00;55.50;;;;;11.28;55.55;101917.31;6331958;22;46580;-73
2023/02/15 00:55:56;;;;;;;;;72.75;55.25;;;;;11.40;55.58;101932.38;6303805;22;47168;-74
2023/02/15 00:58:22;;;;;;;;;70.50;56.00;;;;;11.40;55.66;101931.53;6332336;22;45844;-74
2023/02/15 01:00:48;;;;;;;;;76.75;59.25;;;;;11.39;55.57;101930.69;6331892;22;46055;-72
2023/02/15 01:03:16;;;;;;;;;73.50;55.00;;;;;11.38;55.75;101923.75;6304114;22;47737;-73
2023/02/15 01:09:03;;;;;;;;;78.75;58.75;;;;;11.34;55.87;101928.31;6332449;22;45673;-74
2023/02/15 01:11:28;;;;;;;;;74.75;57.00;;;;;11.33;55.78;101923.16;6332430;22;45573;-74
2023/02/15 01:13:57;;;;;;;;;72.75;56.75;;;;;11.25;55.85;101915.69;6331931;22;45572;-73
2023/02/15 01:16:25;;;;;;;;;71.00;55.00;;;;;11.27;55.85;101911.22;6330966;22;47083;-73
2023/02/15 01:18:52;;;;;;;;;65.75;53.00;;;;;11.30;55.79;101918.91;6303684;22;45919;-73
2023/02/15 01:21:20;;;;;;;;;76.50;56.50;;;;;11.29;56.02;101918.97;6331114;22;45957;-75
2023/02/15 01:23:46;;;;;;;;;75.25;57.50;;;;;11.27;55.92;101918.22;6303869;22;46872;-72
2023/02/15 01:26:12;;;;;;;;;73.75;57.25;;;;;11.26;55.83;101913.91;6332082;22;45951;-75
2023/02/15 01:28:38;;;;;;;;;72.75;57.75;;;;;11.21;56.07;101908.91;6332434;22;45811;-74
2023/02/15 01:31:14;;;;;;;;;72.25;56.50;;;;;11.22;56.02;101909.75;6331962;22;45727;-75
2023/02/15 01:33:40;;;;;;;;;75.25;58.25;;;;;11.14;56.47;101897.03;6332038;22;46504;-74
2023/02/15 01:39:27;;;;;;;;;79.25;58.50;;;;;11.17;56.40;101911.78;6328243;22;45823;-73
2023/02/15 01:41:53;;;;;;;;;81.25;59.25;;;;;11.12;56.34;101914.63;6332462;22;45560;-74
2023/02/15 01:44:51;;;;;;;;;80.50;60.00;;;;;11.09;56.29;101913.94;6331892;22;46153;-74
2023/02/15 01:47:38;;;;;;;;;77.50;58.75;;;;;11.07;56.39;101924.50;6331633;22;46255;-74
2023/02/15 01:50:18;;;;;;;;;72.75;56.75;;;;;10.98;56.39;101904.00;6331532;22;45979;-74
2023/02/15 01:52:51;;;;;;;;;74.25;56.50;;;;;11.04;56.57;101914.19;6330282;22;45661;-74
2023/02/15 01:55:16;;;;;;;;;79.50;59.00;;;;;11.02;56.37;101921.28;6331331;22;46751;-74
2023/02/15 01:57:45;;;;;;;;;77.25;59.00;;;;;10.96;56.62;101912.91;6332340;22;45714;-74
2023/02/15 02:00:11;;;;;;;;;68.50;53.50;;;;;10.98;56.51;101909.25;6332068;22;45852;-74
2023/02/15 02:02:36;;;;;;;;;74.00;58.25;;;;;10.98;56.64;101906.63;6332452;22;45749;-74
2023/02/15 02:05:06;;;;;;;;;77.50;58.25;;;;;10.97;56.65;101904.06;6330552;22;48075;-74
2023/02/15 02:07:38;;;;;;;;;79.50;59.00;;;;;10.98;56.74;101908.41;6331839;22;46598;-74
2023/02/15 02:10:07;;;;;;;;;75.00;56.00;;;;;10.96;56.67;101898.00;6332556;22;45521;-73
2023/02/15 02:12:34;;;;;;;;;71.00;55.75;;;;;10.94;56.29;101903.34;6304341;22;45506;-74
2023/02/15 02:15:00;;;;;;;;;76.50;59.00;;;;;10.93;56.66;101904.25;6332356;22;45763;-74
2023/02/15 02:17:44;;;;;;;;;75.50;57.25;;;;;10.90;56.69;101890.47;6331418;22;46531;-74
2023/02/15 02:20:17;;;;;;;;;76.00;56.25;;;;;10.88;56.60;101887.91;6332024;22;45525;-74
2023/02/15 02:23:10;;;;;;;;;78.25;59.75;;;;;10.87;56.75;101890.59;6333200;22;45605;-74
2023/02/15 02:26:13;;;;;;;;;73.25;56.75;;;;;10.85;56.58;101900.34;6331195;22;46625;-74
2023/02/15 02:29:15;;;;;;;;;74.50;56.75;;;;;10.82;56.65;101890.84;6331427;22;46615;-74
2023/02/15 02:32:03;;;;;;;;;74.75;56.75;;;;;10.81;56.77;101893.53;6331431;22;45773;-74
2023/02/15 02:38:12;;;;;;;;;72.75;55.75;;;;;10.79;56.90;101882.31;6332067;22;45684;-74
2023/02/15 02:41:31;;;;;;;;;78.75;59.50;;;;;10.77;56.86;101873.66;6300233;22;45979;-73
2023/02/15 02:44:22;;;;;;;;;79.25;56.75;;;;;10.76;56.88;101879.81;6299150;22;45566;-74
2023/02/15 02:46:54;;;;;;;;;77.75;58.50;;;;;10.74;56.83;101873.84;6300864;22;45677;-73
2023/02/15 02:49:37;;;;;;;;;77.25;57.50;;;;;10.68;56.77;101861.88;6299768;22;46337;-74
2023/02/15 02:55:46;;;;;;;;;74.50;56.50;;;;;10.66;57.13;101862.88;6300227;22;45573;-72
2023/02/15 02:58:15;;;;;;;;;76.75;56.25;;;;;10.69;56.88;101863.56;6272605;22;45813;-73
2023/02/15 03:00:49;;;;;;;;;79.00;61.25;;;;;10.68;56.94;101871.53;6299879;22;47394;-74
2023/02/15 03:03:34;;;;;;;;;77.50;59.50;;;;;10.65;57.10;101872.50;6301099;22;46724;-73
2023/02/15 03:06:06;;;;;;;;;80.75;62.25;;;;;10.65;57.04;101879.53;6299337;22;45702;-74
2023/02/15 03:08:57;;;;;;;;;77.50;61.25;;;;;10.63;57.06;101882.25;6299815;22;45489;-74
2023/02/15 03:11:23;;;;;;;;;78.00;58.75;;;;;10.56;57.19;101865.13;6299381;22;47699;-74
2023/02/15 03:13:49;;;;;;;;;76.00;58.50;;;;;10.60;57.18;101876.28;6300283;22;45932;-75
2023/02/15 03:16:27;;;;;;;;;81.00;62.50;;;;;10.58;57.18;101886.03;6301272;22;45573;-75
2023/02/15 03:19:15;;;;;;;;;71.75;58.75;;;;;10.59;57.13;101880.69;6302167;22;45535;-74
2023/02/15 03:21:57;;;;;;;;;75.50;58.75;;;;;10.58;57.38;101878.16;6301632;22;47592;-74
2023/02/15 03:24:26;;;;;;;;;82.25;61.50;;;;;10.58;57.39;101880.78;6302762;22;46401;-74
2023/02/15 03:26:53;;;;;;;;;77.75;59.50;;;;;10.56;57.48;101873.00;6302407;22;45620;-73
2023/02/15 03:29:21;;;;;;;;;76.00;58.00;;;;;10.52;57.08;101869.69;6300868;22;45648;-76
2023/02/15 03:31:55;;;;;;;;;78.50;58.25;;;;;10.51;57.36;101864.53;6299878;22;47284;-74
2023/02/15 03:34:20;;;;;;;;;78.50;58.00;;;;;10.47;57.36;101855.13;6299404;22;46278;-75
2023/02/15 03:37:09;;;;;;;;;76.00;58.25;;;;;10.47;57.33;101863.00;6271606;22;45622;-74
2023/02/15 03:39:49;;;;;;;;;79.00;59.75;;;;;10.48;57.38;101856.78;6173311;23;45801;-74
2023/02/15 03:42:26;;;;;;;;;77.75;59.50;;;;;10.39;57.75;101852.03;6173465;23;47115;-74
2023/02/15 03:45:00;;;;;;;;;77.50;62.00;;;;;10.46;57.44;101858.66;6173724;23;45700;-75
2023/02/15 03:47:33;;;;;;;;;77.50;58.50;;;;;10.39;57.61;101862.50;6173532;23;45637;-73
2023/02/15 03:53:05;;;;;;;;;79.00;61.25;;;;;10.40;57.70;101872.91;6173797;23;45644;-74
2023/02/15 03:55:31;;;;;;;;;79.00;58.50;;;;;10.39;57.55;101865.97;6148893;23;45722;-73
2023/02/15 04:03:58;;;;;;;;;81.75;61.00;;;;;10.23;57.62;101838.84;6175278;23;46161;-74
2023/02/15 04:07:01;;;;;;;;;80.75;59.00;;;;;10.33;57.69;101868.03;6175064;23;45703;-73
2023/02/15 04:12:10;;;;;;;;;70.25;53.75;;;;;10.28;57.85;101868.28;6176017;23;45917;-73
2023/02/15 04:17:19;;;;;;;;;73.25;56.25;;;;;10.24;57.90;101869.38;6273015;22;46026;-74
2023/02/15 04:25:12;;;;;;;;;74.75;58.00;;;;;10.19;58.05;101866.13;6301318;22;45777;-74
2023/02/15 04:27:40;;;;;;;;;81.00;59.25;;;;;10.17;57.96;101862.72;6301133;22;47248;-74
2023/02/15 04:30:06;;;;;;;;;76.25;59.25;;;;;10.14;57.73;101857.63;6301530;22;45526;-75
2023/02/15 04:32:31;;;;;;;;;80.75;59.50;;;;;10.14;57.71;101862.00;6302415;22;45609;-74
2023/02/15 04:34:57;;;;;;;;;81.50;59.00;;;;;10.11;57.97;101861.22;6300656;22;47674;-74
2023/02/15 04:37:22;;;;;;;;;78.33;61.00;;;;;10.09;57.90;101859.63;6300592;22;46393;-72
2023/02/15 04:39:47;;;;;;;;;79.00;59.33;;;;;10.04;57.94;101867.66;6321651;22;45506;-74
2023/02/15 04:42:13;;;;;;;;;79.75;60.25;;;;;10.06;57.83;101871.06;6333512;22;45616;-74
2023/02/15 04:44:38;;;;;;;;;80.67;60.67;;;;;10.06;58.18;101868.44;6331909;22;47769;-74
2023/02/15 04:47:03;;;;;;;;;78.50;61.00;;;;;10.05;57.87;101868.53;6332660;22;46134;-74
2023/02/15 04:49:29;;;;;;;;;77.25;60.00;;;;;10.03;58.22;101871.22;6331176;22;46153;-73
2023/02/15 04:51:54;;;;;;;;;79.75;61.75;;;;;10.02;58.18;101860.81;6332812;22;45776;-73
2023/02/15 04:54:20;;;;;;;;;84.00;63.00;;;;;10.00;57.97;101853.03;6332547;22;46251;-73
2023/02/15 04:56:45;;;;;;;;;78.25;58.25;;;;;9.99;58.23;101851.34;6304265;22;46141;-73
2023/02/15 04:59:11;;;;;;;;;81.00;58.75;;;;;9.97;58.33;101850.59;6331687;22;45521;-74
2023/02/15 05:01:37;;;;;;;;;79.00;58.00;;;;;9.94;58.09;101855.94;6332897;22;45696;-74
2023/02/15 05:04:03;;;;;;;;;77.00;57.75;;;;;9.92;58.33;101857.81;6332357;22;45470;-74
2023/02/15 05:06:28;;;;;;;;;78.00;59.75;;;;;9.84;58.25;101846.84;6330924;22;47121;-74
2023/02/15 05:12:15;;;;;;;;;77.75;58.75;;;;;9.85;58.38;101860.78;6332807;22;45560;-73
2023/02/15 05:14:40;;;;;;;;;84.25;63.50;;;;;9.83;58.39;101852.16;6331689;22;47083;-74
2023/02/15 05:17:06;;;;;;;;;77.00;59.00;;;;;9.79;58.29;101854.06;6330202;22;45900;-75
2023/02/15 05:19:31;;;;;;;;;83.75;61.50;;;;;9.76;58.21;101851.63;6333176;22;45490;-74
2023/02/15 05:21:56;;;;;;;;;84.00;59.75;;;;;9.73;58.22;101846.50;6332685;22;45556;-75
2023/02/15 05:30:27;;;;;;;;;80.00;60.75;;;;;9.62;58.39;101847.03;6331802;22;45926;-74
2023/02/15 05:32:52;;;;;;;;;87.25;63.00;;;;;9.57;58.40;101841.16;6332161;22;45565;-75
2023/02/15 05:35:18;;;;;;;;;79.75;60.00;;;;;9.54;58.48;101851.78;6331542;22;46674;-75
2023/02/15 05:37:43;;;;;;;;;84.00;62.25;;;;;9.51;58.65;101843.22;6331026;22;46157;-75
2023/02/15 05:40:09;;;;;;;;;79.00;60.75;;;;;9.53;58.91;101849.22;6331241;22;45577;-73
2023/02/15 05:42:35;;;;;;;;;82.50;62.00;;;;;9.50;58.83;101844.97;6332138;22;45505;-74
2023/02/15 05:45:00;;;;;;;;;85.00;63.00;;;;;9.44;58.76;101844.44;6331535;22;45633;-74
2023/02/15 05:47:25;;;;;;;;;80.00;61.75;;;;;9.44;58.48;101849.66;6331619;22;45457;-74
2023/02/15 05:49:51;;;;;;;;;83.75;63.00;;;;;9.42;58.85;101849.72;6332215;22;45507;-75
2023/02/15 05:52:16;;;;;;;;;80.75;63.25;;;;;9.39;58.65;101844.66;6331872;22;45602;-74
2023/02/15 05:58:03;;;;;;;;;85.75;64.25;;;;;9.33;58.98;101842.31;6331908;22;45772;-74
2023/02/15 06:00:29;;;;;;;;;83.25;62.50;;;;;9.30;59.03;101842.44;6332193;22;45838;-74
2023/02/15 06:02:54;;;;;;;;;80.50;64.00;;;;;9.25;59.29;101839.19;6332624;22;45751;-74
2023/02/15 06:05:19;;;;;;;;;84.67;64.00;;;;;9.22;59.29;101844.56;6331600;22;46588;-74
2023/02/15 06:11:07;;;;;;;;;83.75;63.25;;;;;9.16;59.13;101834.41;6331722;22;45526;-75
2023/02/15 06:13:33;;;;;;;;;86.00;61.00;;;;;9.12;58.97;101835.47;6331507;22;45541;-74
2023/02/15 06:15:59;;;;;;;;;82.25;60.75;;;;;9.11;59.36;101823.31;6330906;22;45672;-74
2023/02/15 06:18:25;;;;;;;;;13.75;2.00;;;;;9.03;59.51;101825.41;6331338;22;46346;-74
2023/02/15 06:20:51;;;;;;;;;79.50;63.00;;;;;9.01;59.35;101829.88;6332502;22;45890;-73
2023/02/15 06:26:38;;;;;;;;;84.25;64.00;;;;;8.95;59.79;101848.44;6331171;22;45568;-74
2023/02/15 06:29:05;;;;;;;;;87.00;68.00;;;;;8.92;59.57;101852.00;6331417;22;45666;-74
2023/02/15 06:31:30;;;;;;;;;85.25;65.75;;;;;8.87;59.52;101838.31;6330735;22;45789;-74
2023/02/15 06:34:01;;;;;;;;;83.50;61.25;;;;;8.90;59.70;101842.56;6331088;22;45678;-75
2023/02/15 06:36:30;;;;;;;;;82.00;63.00;;;;;8.80;59.65;101832.50;6329156;22;47795;-74
2023/02/15 06:42:57;;;;;;;;;88.25;64.50;;;;;8.86;59.65;101833.97;6329241;22;45893;-77
2023/02/15 06:45:23;;;;;;;;;86.00;65.25;;;;;8.82;59.90;101825.44;6330867;22;45588;-74
2023/02/15 06:47:48;;;;;;;;;84.25;64.75;;;;;8.82;59.80;101830.66;6331490;22;45638;-74
2023/02/15 06:50:15;;;;;;;;;86.67;64.33;;;;;8.79;59.97;101833.44;6330260;22;45869;-73
2023/02/15 06:52:40;;;;;;;;;85.50;65.00;;;;;8.79;59.74;101845.66;6331127;22;45694;-74
2023/02/15 06:58:27;;;;;;;;;86.75;64.75;;;;;8.79;59.84;101862.19;6331838;22;45742;-74
2023/02/15 07:00:52;;;;;;;;;91.67;66.00;;;;;8.79;60.06;101864.78;6331921;22;48128;-74
2023/02/15 07:03:18;;;;;;;;;86.00;65.33;;;;;8.81;60.17;101878.63;6331927;22;45583;-72
2023/02/15 07:05:44;;;;;;;;;82.75;64.00;;;;;8.81;60.27;101878.63;6332242;22;45850;-75
2023/02/15 07:08:09;;;;;;;;;83.00;65.00;;;;;8.82;60.10;101879.47;6332445;22;45669;-73
2023/02/15 07:13:56;;;;;;;;;87.25;66.00;;;;;8.83;59.75;101884.63;6331538;22;45635;-72
2023/02/15 07:16:22;;;;;;;;;89.00;67.00;;;;;8.83;59.92;101881.16;6331950;22;45601;-74
2023/02/15 07:18:47;;;;;;;;;88.75;67.25;;;;;8.82;59.89;101876.84;6331974;22;45505;-74
2023/02/15 07:21:12;;;;;;;;;91.00;67.00;;;;;8.81;59.99;101883.84;6331388;22;47288;-74
2023/02/15 07:23:39;;;;;;;;;87.75;65.25;;;;;8.84;59.97;101890.72;6332076;22;45597;-74
2023/02/15 07:26:06;;;;;;;;;89.50;67.75;;;;;8.81;60.16;101881.22;6331777;22;45561;-72
2023/02/15 07:28:33;;;;;;;;;87.25;64.75;;;;;8.84;59.72;101890.72;6332221;22;46149;-71
2023/02/15 07:30:58;;;;;;;;;88.00;65.75;;;;;8.83;60.13;101894.22;6330320;22;46794;-74
2023/02/15 07:33:24;;;;;;;;;90.00;68.00;;;;;8.85;60.08;101887.19;6331488;22;45606;-71
2023/02/15 07:35:58;;;;;;;;;83.25;65.00;;;;;8.87;59.97;101895.78;6330991;22;45848;-74
2023/02/15 07:38:29;;;;;;;;;83.00;63.25;;;;;8.88;60.17;101897.50;6330955;22;47335;-74
2023/02/15 07:44:43;;;;;;;;;88.00;65.50;;;;;8.88;60.33;101896.66;6327013;22;45746;-71
2023/02/15 07:47:09;;;;;;;;;86.50;67.75;;;;;8.89;59.92;101893.13;6329402;22;45502;-73
2023/02/15 07:49:34;;;;;;;;;87.25;66.25;;;;;8.89;60.32;101893.13;6331263;22;46200;-73
2023/02/15 07:52:01;;;;;;;;;84.33;66.00;;;;;8.90;59.97;101892.22;6331637;22;46437;-74
2023/02/15 07:54:26;;;;;;;;;89.75;70.75;;;;;8.90;60.33;101898.28;6330212;22;45556;-72
2023/02/15 07:56:52;;;;;;;;;91.75;71.25;;;;;8.94;60.26;101899.84;6330799;22;45615;-73
2023/02/15 07:59:17;;;;;;;;;94.00;70.00;;;;;8.93;59.94;101898.16;6331443;22;45575;-77
2023/02/15 08:01:42;;;;;;;;;88.00;65.50;;;;;8.96;60.02;101895.38;6331182;22;45667;-74
2023/02/15 08:04:09;;;;;;;;;92.00;70.75;;;;;8.99;59.79;101903.09;6302823;22;45534;-73
2023/02/15 08:06:36;;;;;;;;;91.25;69.25;;;;;9.02;59.81;101908.19;6331481;22;45776;-74
2023/02/15 08:09:04;;;;;;;;;91.75;70.00;;;;;9.03;59.95;101904.66;6330413;22;45529;-75
2023/02/15 08:11:36;;;;;;;;;91.25;68.75;;;;;9.06;59.93;101901.09;6330505;22;47029;-74
2023/02/15 08:14:13;;;;;;;;;96.75;70.25;;;;;9.08;60.01;101904.47;6330789;22;45716;-75
2023/02/15 08:16:40;;;;;;;;;92.75;70.00;;;;;9.09;59.67;101903.53;6330599;22;45846;-74
2023/02/15 08:19:20;;;;;;;;;95.25;74.25;;;;;9.06;59.70;101899.31;6331488;22;46200;-72
2023/02/15 08:21:56;;;;;;;;;92.50;68.75;;;;;9.12;59.86;101906.88;6330917;22;46944;-72
2023/02/15 08:24:23;;;;;;;;;85.50;63.50;;;;;9.10;59.79;101903.50;6331226;22;45788;-73
2023/02/15 08:26:49;;;;;;;;;91.00;68.00;;;;;9.15;59.83;101906.75;6331256;22;45482;-72
2023/02/15 08:29:17;;;;;;;;;89.75;68.25;;;;;9.15;59.79;101901.50;6330959;22;45900;-73
2023/02/15 08:31:42;;;;;;;;;90.25;72.25;;;;;9.17;59.54;101911.91;6331246;22;46000;-75
2023/02/15 08:34:11;;;;;;;;;98.25;75.50;;;;;9.16;59.74;101904.97;6331114;22;45592;-75
2023/02/15 08:36:38;;;;;;;;;92.50;70.00;;;;;9.17;59.74;101904.94;6330993;22;45473;-72
2023/02/15 08:39:05;;;;;;;;;90.00;65.50;;;;;9.17;59.57;101902.31;6302522;22;48645;-73
2023/02/15 08:44:52;;;;;;;;;92.75;69.00;;;;;9.17;59.46;101896.22;6329669;22;45814;-75
2023/02/15 08:47:17;;;;;;;;;84.50;64.75;;;;;9.18;59.70;101890.91;6332785;22;45572;-75
2023/02/15 08:49:42;;;;;;;;;93.00;75.00;;;;;9.19;59.63;101899.59;6331617;22;46331;-76
2023/02/15 08:52:08;;;;;;;;;91.33;71.33;;;;;9.15;59.58;101885.81;6332524;22;45537;-76
2023/02/15 08:54:33;;;;;;;;;82.75;58.75;;;;;9.04;59.48;101859.31;6303584;22;45616;-76
2023/02/15 08:56:59;;;;;;;;;89.50;67.75;;;;;9.22;59.56;101897.72;6332232;22;45697;-73
2023/02/15 08:59:26;;;;;;;;;98.50;78.75;;;;;9.21;59.77;101890.78;6332334;22;45555;-76
2023/02/15 09:01:52;;;;;;;;;91.75;68.25;;;;;9.24;59.40;101889.78;6331830;22;46397;-74
2023/02/15 09:04:19;;;;;;;;;93.25;72.50;;;;;9.23;59.38;101888.13;6331699;22;45576;-73
2023/02/15 09:06:46;;;;;;;;;98.00;77.00;;;;;9.28;59.68;101886.13;6332070;22;45577;-75
2023/02/15 09:09:12;;;;;;;;;91.75;66.25;;;;;9.30;59.49;101881.66;6332343;22;45451;-74
2023/02/15 09:14:59;;;;;;;;;88.25;67.00;;;;;9.38;59.63;101882.19;6332026;22;45761;-75
2023/02/15 09:17:24;;;;;;;;;91.33;68.00;;;;;9.43;59.16;101874.13;6332921;22;45650;-73
2023/02/15 09:19:49;;;;;;;;;87.25;66.75;;;;;9.47;59.33;101886.13;6332476;22;45780;-74
2023/02/15 09:22:15;;;;;;;;;91.67;72.00;;;;;9.51;59.33;101888.53;6332933;22;45846;-74
2023/02/15 09:24:40;;;;;;;;;92.33;74.00;;;;;9.55;59.36;101891.88;6331495;22;45589;-73
2023/02/15 09:27:05;;;;;;;;;90.25;72.25;;;;;9.55;59.28;101892.72;6333009;22;45892;-73
2023/02/15 09:29:31;;;;;;;;;92.67;70.00;;;;;9.62;58.99;101895.88;6332909;22;47006;-74
2023/02/15 09:31:56;;;;;;;;;86.33;68.67;;;;;9.64;59.02;101897.53;6332024;22;47046;-74
2023/02/15 09:34:22;;;;;;;;;95.00;74.33;;;;;9.68;59.03;101900.84;6332915;22;45667;-72
2023/02/15 09:36:48;;;;;;;;;93.00;71.50;;;;;9.69;59.05;101907.78;6331421;22;45656;-72
2023/02/15 09:39:26;;;;;;;;;96.00;74.50;;;;;9.74;58.91;101904.94;6332306;22;46366;-75
2023/02/15 09:45:35;;;;;;;;;89.75;66.75;;;;;9.82;58.80;101913.28;6330654;22;45659;-75
2023/02/15 09:48:50;;;;;;;;;97.50;79.25;;;;;9.85;58.59;101914.00;6332323;22;45495;-73
2023/02/15 09:51:44;;;;;;;;;93.50;75.25;;;;;9.90;58.51;101917.22;6235295;22;45749;-74
2023/02/15 09:54:41;;;;;;;;;98.75;76.25;;;;;9.94;58.62;101918.78;6173329;23;46446;-76
2023/02/15 09:57:34;;;;;;;;;92.25;71.00;;;;;10.00;58.38;101917.63;6174349;23;45885;-74
2023/02/15 10:00:07;;;;;;;;;95.50;69.50;;;;;10.03;58.39;101922.75;6174488;23;45530;-75
2023/02/15 10:02:51;;;;;;;;;90.25;74.00;;;;;9.96;58.29;101896.00;6174483;23;46475;-74
2023/02/15 10:05:40;;;;;;;;;90.50;70.75;;;;;10.13;58.43;101916.16;6173820;23;47268;-74
2023/02/15 10:08:23;;;;;;;;;92.75;76.25;;;;;10.18;58.36;101916.81;6174303;22;45790;-74
2023/02/15 10:14:42;;;;;;;;;96.50;74.00;;;;;10.31;58.58;101924.91;6174349;23;45589;-73
2023/02/15 10:17:26;;;;;;;;;93.25;70.25;;;;;10.37;58.27;101914.97;6085215;23;46122;-71
2023/02/15 10:20:10;;;;;;;;;89.75;68.50;;;;;10.42;58.54;101920.81;6085288;23;45757;-73
2023/02/15 10:22:54;;;;;;;;;88.50;71.25;;;;;10.49;58.24;101924.84;6106366;23;45480;-73
2023/02/15 10:25:31;;;;;;;;;94.25;70.75;;;;;10.56;58.36;101928.03;6113621;23;45920;-74
2023/02/15 10:28:06;;;;;;;;;89.25;72.75;;;;;10.63;58.00;101924.19;6114307;23;46882;-73
2023/02/15 10:30:48;;;;;;;;;92.50;72.50;;;;;10.68;58.02;101927.41;6135044;22;45783;-74
2023/02/15 10:33:33;;;;;;;;;86.50;65.25;;;;;10.73;57.93;101922.78;6204755;22;45829;-75
2023/02/15 10:36:18;;;;;;;;;96.25;75.50;;;;;10.78;57.82;101928.63;6204618;22;46600;-73
2023/02/15 10:38:58;;;;;;;;;90.50;78.50;;;;;10.82;57.60;101924.94;6205216;22;46355;-73
2023/02/15 10:41:45;;;;;;;;;95.50;78.75;;;;;10.86;57.73;101931.69;6203926;22;45650;-73
2023/02/15 10:44:17;;;;;;;;;96.75;75.75;;;;;10.89;57.55;101922.84;6203809;22;45854;-72
2023/02/15 10:47:27;;;;;;;;;95.25;78.75;;;;;10.93;57.53;101925.22;6204790;22;45811;-74
2023/02/15 10:50:02;;;;;;;;;96.00;79.25;;;;;10.96;57.24;101918.97;6180506;22;46113;-74
2023/02/15 10:52:44;;;;;;;;;92.50;76.50;;;;;11.01;57.47;101919.59;6204180;22;45764;-71
2023/02/15 10:58:36;;;;;;;;;86.25;64.75;;;;;11.10;57.18;101918.25;6300166;22;46271;-72
2023/02/15 11:01:07;;;;;;;;;94.25;77.50;;;;;11.14;56.91;101915.41;6300013;22;46532;-74
2023/02/15 11:03:46;;;;;;;;;89.75;74.75;;;;;11.21;56.89;101913.31;6300387;22;45777;-73
2023/02/15 11:06:17;;;;;;;;;91.00;77.25;;;;;11.26;56.54;101916.53;6299591;22;45832;-75
2023/02/15 11:08:51;;;;;;;;;90.25;69.25;;;;;11.29;56.72;101918.97;6300215;22;45414;-75
2023/02/15 11:15:04;;;;;;;;;88.00;70.25;;;;;11.40;56.35;101915.78;6300046;22;45647;-73
2023/02/15 11:17:50;;;;;;;;;95.00;75.50;;;;;11.40;56.39;101902.66;6143784;23;45904;-74
2023/02/15 11:20:22;;;;;;;;;87.75;71.25;;;;;11.50;56.52;101909.97;6143865;23;46684;-74
2023/02/15 11:22:53;;;;;;;;;91.50;78.00;;;;;11.56;56.29;101907.00;6144199;23;46125;-74
2023/02/15 11:25:24;;;;;;;;;92.75;79.00;;;;;11.61;56.17;101902.34;6144173;23;45682;-73
2023/02/15 11:31:24;;;;;;;;;101.50;83.25;;;;;11.73;56.07;101901.72;6144607;23;45598;-74
2023/02/15 11:34:03;;;;;;;;;92.75;75.75;;;;;11.73;55.71;101901.72;6145042;23;46466;-74
2023/02/15 11:36:33;;;;;;;;;97.25;79.75;;;;;11.81;55.89;101914.44;6144813;23;45911;-72
2023/02/15 11:39:04;;;;;;;;;95.25;80.50;;;;;11.70;55.58;101891.38;6144283;23;45727;-73
2023/02/15 11:41:37;;;;;;;;;95.00;82.00;;;;;11.90;55.71;101895.53;6118432;23;48772;-73
2023/02/15 11:44:17;;;;;;;;;93.50;81.25;;;;;11.93;55.65;101887.47;6147097;23;46102;-71
2023/02/15 11:46:43;;;;;;;;;91.75;82.25;;;;;11.97;55.35;101891.63;6174001;22;45791;-74
2023/02/15 11:49:26;;;;;;;;;92.50;78.25;;;;;12.04;55.19;101886.84;6174000;23;45773;-74
2023/02/15 11:51:53;;;;;;;;;93.00;79.75;;;;;12.08;55.39;101894.50;6173616;23;47306;-74
2023/02/15 11:54:26;;;;;;;;;93.25;81.50;;;;;12.12;55.47;101889.91;6235679;22;46296;-73
2023/02/15 11:56:51;;;;;;;;;90.00;74.00;;;;;12.15;55.26;101881.84;6299484;22;45766;-73
2023/02/15 11:59:29;;;;;;;;;91.50;78.50;;;;;12.27;54.82;101893.44;6299475;22;45672;-72
2023/02/15 12:01:54;;;;;;;;;96.25;80.50;;;;;12.32;54.34;101889.59;6299991;22;45511;-73
2023/02/15 12:04:34;;;;;;;;;89.75;73.75;;;;;12.35;54.63;101878.94;6298948;22;47418;-72
2023/02/15 12:07:27;;;;;;;;;92.50;77.25;;;;;12.43;54.35;101881.09;6271781;22;45742;-73
2023/02/15 12:09:52;;;;;;;;;90.50;77.50;;;;;12.49;54.70;101884.22;6299267;22;45537;-75
2023/02/15 12:12:29;;;;;;;;;91.67;75.00;;;;;12.56;54.08;101889.97;6299797;22;45728;-73
2023/02/15 12:15:07;;;;;;;;;89.00;75.50;;;;;12.61;54.39;101885.28;6299314;22;45962;-72
2023/02/15 12:17:40;;;;;;;;;87.50;71.25;;;;;12.70;54.14;101878.63;6300729;22;45960;-73
2023/02/15 12:20:14;;;;;;;;;85.75;70.75;;;;;12.76;54.18;101880.91;6300213;22;45750;-75
2023/02/15 12:23:02;;;;;;;;;89.75;79.25;;;;;12.81;54.09;101884.09;6272138;22;48552;-71
2023/02/15 12:25:32;;;;;;;;;89.75;74.75;;;;;12.83;53.64;101869.09;6300312;22;47083;-75
2023/02/15 12:27:58;;;;;;;;;86.00;70.75;;;;;12.89;53.60;101873.97;6301230;22;45660;-74
2023/02/15 12:30:28;;;;;;;;;88.50;75.00;;;;;12.92;53.53;101876.41;6299661;22;45639;-72
2023/02/15 12:33:03;;;;;;;;;89.50;73.75;;;;;12.98;53.24;101876.03;6300624;22;45679;-73
2023/02/15 12:35:30;;;;;;;;;89.25;70.00;;;;;13.02;53.55;101870.50;6300528;22;47090;-73
2023/02/15 12:38:24;;;;;;;;;88.50;72.50;;;;;13.08;53.37;101871.06;6300875;22;46323;-74
2023/02/15 12:40:59;;;;;;;;;94.25;75.50;;;;;13.15;52.97;101875.91;6300854;22;45639;-72
2023/02/15 12:43:34;;;;;;;;;83.50;72.00;;;;;13.22;53.12;101871.09;6300186;22;46546;-73
2023/02/15 12:46:18;;;;;;;;;88.75;77.25;;;;;13.28;52.68;101865.47;6329122;22;46003;-73
2023/02/15 12:48:43;;;;;;;;;90.25;72.00;;;;;13.30;52.92;101863.56;6332706;22;45557;-75
2023/02/15 12:51:13;;;;;;;;;88.33;71.00;;;;;13.34;52.32;101863.28;6330522;22;45497;-73
2023/02/15 12:53:39;;;;;;;;;89.00;74.25;;;;;13.41;52.51;101859.31;6331569;22;47270;-74
2023/02/15 12:56:07;;;;;;;;;90.75;75.75;;;;;13.52;52.58;101865.69;6332286;22;45878;-75
2023/02/15 12:58:39;;;;;;;;;87.75;71.75;;;;;13.59;52.70;101867.00;6331430;22;45422;-73
2023/02/15 13:01:15;;;;;;;;;88.25;69.25;;;;;13.66;51.76;101865.66;6332364;22;45718;-73
2023/02/15 13:04:05;;;;;;;;;83.50;68.25;;;;;13.70;52.08;101873.28;6327458;22;46626;-73
2023/02/15 13:06:34;;;;;;;;;84.50;71.50;;;;;13.74;51.89;101863.38;6330439;22;45855;-73
2023/02/15 13:09:19;;;;;;;;;88.50;72.50;;;;;13.80;51.68;101861.22;6332863;22;45674;-73
2023/02/15 13:11:46;;;;;;;;;85.50;70.00;;;;;13.84;51.90;101859.22;6332619;22;45773;-71
2023/02/15 13:14:21;;;;;;;;;85.00;65.75;;;;;13.91;51.79;101863.16;6330687;22;45673;-72
2023/02/15 13:16:50;;;;;;;;;85.50;70.25;;;;;13.95;51.50;101864.63;6331758;22;46429;-74
2023/02/15 13:19:37;;;;;;;;;86.25;72.50;;;;;13.99;51.00;101866.13;6332479;22;45886;-74
2023/02/15 13:22:10;;;;;;;;;87.75;73.25;;;;;14.03;51.16;101864.16;6332485;22;45654;-71
2023/02/15 13:24:42;;;;;;;;;87.75;73.25;;;;;14.05;51.29;101863.09;6331560;22;46221;-71